• Join FlightAware (Why Join?)
  • Login
  • US Flag 
02:29PM EDT


 

Airport Tracker/Info


-or-


 

Live Flight TrackerFlight Track Log ✈ N610DA ✈ 16-Jun-2013 ✈ KSFB - KJAX

Flight Track Log - Related Links

Times and Time Zones

All times are in EDT time to prevent confusion due to time zone crossing. See the N610DA flight status page for this flight to view local times or setup timezone preferences in your user account.

Time Position Orientation Groundspeed Altitude Reporting Facility
EDT Latitude Longitude Course Direction KTS MPH feet Rate Location/Type
12:41PM 28.7833 -81.2333 90° East 63 72 400  Level Orlando TRACON
12:42PM 28.7833 -81.2167 90° East 94 108 800 660 Climbing Orlando TRACON
12:43PM 28.8000 -81.2000 41° Northeast 102 117 1,400 540 Climbing Orlando TRACON
12:44PM 28.8333 -81.1667 41° Northeast 111 128 1,900 540 Climbing Orlando TRACON
12:45PM 28.8525 -81.2094 297° West 108 124 2,800 600 Climbing Jacksonville Center
12:46PM 28.8508 -81.2428 267° West 112 129 3,400 540 Climbing Jacksonville Center
12:47PM 28.8472 -81.2783 263° West 113 130 3,900 480 Climbing Jacksonville Center
12:48PM 28.8436 -81.3117 263° West 111 128 4,400 540 Climbing Jacksonville Center
12:49PM 28.8439 -81.3425 271° West 107 123 5,000 480 Climbing Jacksonville Center
12:50PM 28.8669 -81.3586 329° Northwest 110 127 5,400 360 Climbing Jacksonville Center
12:51PM 28.8964 -81.3725 338° Northwest 109 125 5,800 300 Climbing Jacksonville Center
12:52PM 28.9256 -81.3792 349° North 102 117 6,100 300 Climbing Jacksonville Center
12:53PM 28.9528 -81.3833 352° North 101 116 6,400 360 Climbing Jacksonville Center
12:54PM 28.9842 -81.3853 357° North 115 132 6,800 240 Climbing Jacksonville Center
12:55PM 29.0156 -81.3894 353° North 115 132 7,000 60 Climbing Jacksonville Center
12:56PM 29.0489 -81.3939 353° North 119 137 7,000  Level Jacksonville Center
12:57PM 29.0886 -81.3956 358° North 122 140 7,000  Level Jacksonville Center
12:58PM 29.1200 -81.3997 337° Northwest 121 139 7,000  Level Jacksonville Center
12:59PM 29.1578 -81.4064 351° North 129 148 7,000  Level Jacksonville Center
01:00PM 29.1953 -81.4178 345° North 134 154 7,000  Level Jacksonville Center
01:01PM 29.2289 -81.4172 North 136 157 7,000  Level Jacksonville Center
01:02PM 29.2747 -81.4119 North 133 153 7,000  Level Jacksonville Center
01:03PM 29.3081 -81.4161 354° North 132 152 7,000  Level Jacksonville Center
01:04PM 29.3500 -81.4225 352° North 133 153 7,000  Level Jacksonville Center
01:05PM 29.3833 -81.4244 357° North 134 154 7,000  Level Jacksonville Center
01:06PM 29.4250 -81.4214 North 129 148 7,000  Level Jacksonville Center
01:07PM 29.4606 -81.4281 351° North 126 145 7,000  Level Jacksonville Center
01:08PM 29.4961 -81.4322 354° North 131 151 7,000  Level Jacksonville Center
01:09PM 29.5317 -81.4367 354° North 129 148 7,000  Level Jacksonville Center
01:10PM 29.5672 -81.4408 354° North 129 148 7,000  Level Jacksonville Center
01:11PM 29.6050 -81.4497 348° North 132 152 7,000  Level Jacksonville Center
01:12PM 29.6236 -81.4519 354° North 132 152 7,000  Level Jacksonville Center
01:13PM 29.6697 -81.4583 353° North 135 155 7,000  Level Jacksonville Center
01:14PM 29.7031 -81.4581 360° North 134 154 7,000  Level Jacksonville Center
01:15PM 29.7450 -81.4597 358° North 134 154 7,000  Level Jacksonville Center
01:16PM 29.7783 -81.4592 North 130 150 7,000  Level Jacksonville Center
01:17PM 29.8200 -81.4633 355° North 130 150 7,000  Level Jacksonville Center
01:18PM 29.8578 -81.4675 355° North 134 154 7,000  Level Jacksonville Center
01:19PM 29.8933 -81.4719 354° North 134 154 7,000  Level Jacksonville Center
01:20PM 29.9308 -81.4761 354° North 126 145 7,000 -120 Level Jacksonville Center
01:21PM 29.9664 -81.4781 357° North 129 148 6,800 -300 Descending Jacksonville Center
01:22PM 30.0039 -81.4797 358° North 138 159 6,400 -480 Descending Jacksonville Center
01:23PM 30.0478 -81.4839 355° North 136 157 5,800 -600 Descending Jacksonville Center
01:24PM 30.0814 -81.4836 360° North 133 153 5,300 -420 Descending Jacksonville Center
01:25PM 30.1147 -81.4925 347° North 129 148 5,000 -180 Descending Jacksonville Center
01:26PM 30.1544 -81.4969 354° North 127 146 5,000  Level Jacksonville Center
01:27PM 30.1881 -81.5011 354° North 128 147 5,000  Level Jacksonville Center
01:28PM 30.2175 -81.5225 328° Northwest 121 139 5,000  Level Jacksonville Center
01:29PM 30.2364 -81.5439 316° Northwest 119 137 5,000  Level Jacksonville Center
01:30PM 30.2575 -81.5675 316° Northwest 121 139 5,000  Level Jacksonville Center
01:31PM 30.2892 -81.6056 314° West 123 142 5,000  Level Jacksonville Center
01:33PM 30.3167 -81.6414 312° West 123 142 5,000  Level Jacksonville Center
01:34PM 30.3419 -81.6675 318° Northwest 129 148 5,000  Level Jacksonville Center
01:35PM 30.3675 -81.6961 316° Northwest 129 148 5,000  Level Jacksonville Center
01:35PM 30.3864 -81.7197 313° West 124 143 5,000 -120 Level Jacksonville Center
01:36PM 30.4097 -81.7483 313° West 118 136 4,800 -360 Descending Jacksonville Center
01:38PM 30.4369 -81.7794 315° West 119 137 4,300 -420 Descending Jacksonville Center
01:39PM 30.4603 -81.8058 316° Northwest 122 140 4,000 -600 Descending Jacksonville Center
01:39PM 30.4833 -81.8344 313° West 127 146 3,200 -840 Descending Jacksonville Center
01:41PM 30.5150 -81.8483 339° North 143 165 2,300 -660 Descending Jacksonville Center
01:42PM 30.5272 -81.8097 70° East 115 132 1,900 -540 Descending Jacksonville Center
01:42PM 30.5289 -81.7833 86° East 134 154 1,400 -600 Descending Jacksonville Center
01:43PM 30.5161 -81.7447 111° Southeast 122 140 900 -540 Descending Jacksonville Center
01:44PM 30.5011 -81.7183 123° Southeast 100 115 400 -540 Descending Jacksonville Center